sensor_id;sensor_type;location;lat;lon;timestamp;P1;durP1;ratioP1;P2;durP2;ratioP2
10904;SDS011;5505;51.450;9.254;2023-01-24T00:01:20;7.20;;;5.03;;
10904;SDS011;5505;51.450;9.254;2023-01-24T00:04:08;5.93;;;5.33;;
10904;SDS011;5505;51.450;9.254;2023-01-24T00:06:54;6.60;;;5.80;;
10904;SDS011;5505;51.450;9.254;2023-01-24T00:09:42;7.00;;;5.93;;
10904;SDS011;5505;51.450;9.254;2023-01-24T00:12:29;6.77;;;5.90;;
10904;SDS011;5505;51.450;9.254;2023-01-24T00:15:16;6.50;;;5.50;;
10904;SDS011;5505;51.450;9.254;2023-01-24T00:18:03;5.77;;;4.80;;
10904;SDS011;5505;51.450;9.254;2023-01-24T00:20:49;7.07;;;5.60;;
10904;SDS011;5505;51.450;9.254;2023-01-24T00:23:36;5.23;;;4.67;;
10904;SDS011;5505;51.450;9.254;2023-01-24T00:26:25;6.97;;;6.07;;
10904;SDS011;5505;51.450;9.254;2023-01-24T00:29:11;7.10;;;6.00;;
10904;SDS011;5505;51.450;9.254;2023-01-24T00:31:58;6.27;;;5.23;;
10904;SDS011;5505;51.450;9.254;2023-01-24T00:34:45;6.23;;;5.00;;
10904;SDS011;5505;51.450;9.254;2023-01-24T00:37:32;5.93;;;5.33;;
10904;SDS011;5505;51.450;9.254;2023-01-24T00:40:18;3.37;;;2.67;;
10904;SDS011;5505;51.450;9.254;2023-01-24T00:43:06;5.07;;;4.10;;
10904;SDS011;5505;51.450;9.254;2023-01-24T00:45:53;6.40;;;5.37;;
10904;SDS011;5505;51.450;9.254;2023-01-24T00:48:40;6.13;;;5.53;;
10904;SDS011;5505;51.450;9.254;2023-01-24T00:51:27;5.43;;;4.83;;
10904;SDS011;5505;51.450;9.254;2023-01-24T00:54:15;5.17;;;4.67;;
10904;SDS011;5505;51.450;9.254;2023-01-24T00:57:02;6.90;;;5.27;;
10904;SDS011;5505;51.450;9.254;2023-01-24T00:59:50;6.30;;;5.50;;
10904;SDS011;5505;51.450;9.254;2023-01-24T01:02:37;6.47;;;5.50;;
10904;SDS011;5505;51.450;9.254;2023-01-24T01:05:24;5.33;;;4.63;;
10904;SDS011;5505;51.450;9.254;2023-01-24T01:08:10;6.53;;;5.83;;
10904;SDS011;5505;51.450;9.254;2023-01-24T01:10:58;5.57;;;4.43;;
10904;SDS011;5505;51.450;9.254;2023-01-24T01:13:45;6.03;;;4.57;;
10904;SDS011;5505;51.450;9.254;2023-01-24T01:16:34;6.80;;;4.87;;
10904;SDS011;5505;51.450;9.254;2023-01-24T01:19:22;5.53;;;4.90;;
10904;SDS011;5505;51.450;9.254;2023-01-24T01:22:09;5.40;;;4.90;;
10904;SDS011;5505;51.450;9.254;2023-01-24T01:24:56;5.23;;;4.20;;
10904;SDS011;5505;51.450;9.254;2023-01-24T01:27:43;5.57;;;4.33;;
10904;SDS011;5505;51.450;9.254;2023-01-24T01:30:29;3.87;;;3.10;;
10904;SDS011;5505;51.450;9.254;2023-01-24T01:33:17;4.10;;;3.70;;
10904;SDS011;5505;51.450;9.254;2023-01-24T01:36:05;5.57;;;4.90;;
10904;SDS011;5505;51.450;9.254;2023-01-24T01:38:52;6.23;;;4.47;;
10904;SDS011;5505;51.450;9.254;2023-01-24T01:41:39;3.37;;;2.90;;
10904;SDS011;5505;51.450;9.254;2023-01-24T01:44:26;6.97;;;4.80;;
10904;SDS011;5505;51.450;9.254;2023-01-24T01:47:25;4.60;;;3.10;;
10904;SDS011;5505;51.450;9.254;2023-01-24T01:50:19;6.77;;;5.07;;
10904;SDS011;5505;51.450;9.254;2023-01-24T01:53:12;5.57;;;4.73;;
10904;SDS011;5505;51.450;9.254;2023-01-24T01:56:01;4.73;;;4.20;;
10904;SDS011;5505;51.450;9.254;2023-01-24T01:58:51;6.53;;;4.57;;
10904;SDS011;5505;51.450;9.254;2023-01-24T02:01:41;4.73;;;3.87;;
10904;SDS011;5505;51.450;9.254;2023-01-24T02:04:31;5.80;;;4.47;;
10904;SDS011;5505;51.450;9.254;2023-01-24T02:07:21;5.60;;;4.70;;
10904;SDS011;5505;51.450;9.254;2023-01-24T02:10:14;4.93;;;4.23;;
10904;SDS011;5505;51.450;9.254;2023-01-24T02:13:03;4.97;;;4.37;;
10904;SDS011;5505;51.450;9.254;2023-01-24T02:15:51;5.00;;;4.20;;
10904;SDS011;5505;51.450;9.254;2023-01-24T02:18:47;5.20;;;4.00;;
10904;SDS011;5505;51.450;9.254;2023-01-24T02:21:34;5.00;;;4.17;;
10904;SDS011;5505;51.450;9.254;2023-01-24T02:24:22;6.00;;;4.87;;
10904;SDS011;5505;51.450;9.254;2023-01-24T02:27:17;5.47;;;4.40;;
10904;SDS011;5505;51.450;9.254;2023-01-24T02:30:05;4.50;;;4.10;;
10904;SDS011;5505;51.450;9.254;2023-01-24T02:32:52;4.93;;;4.10;;
10904;SDS011;5505;51.450;9.254;2023-01-24T02:35:39;5.20;;;4.70;;
10904;SDS011;5505;51.450;9.254;2023-01-24T02:38:26;4.83;;;4.33;;
10904;SDS011;5505;51.450;9.254;2023-01-24T02:41:16;5.73;;;4.57;;
10904;SDS011;5505;51.450;9.254;2023-01-24T02:44:09;4.87;;;4.40;;
10904;SDS011;5505;51.450;9.254;2023-01-24T02:46:59;4.20;;;3.20;;
10904;SDS011;5505;51.450;9.254;2023-01-24T02:49:46;2.53;;;2.30;;
10904;SDS011;5505;51.450;9.254;2023-01-24T02:52:32;4.40;;;4.00;;
10904;SDS011;5505;51.450;9.254;2023-01-24T02:55:36;5.03;;;4.10;;
10904;SDS011;5505;51.450;9.254;2023-01-24T02:58:44;4.90;;;4.40;;
10904;SDS011;5505;51.450;9.254;2023-01-24T03:01:31;4.40;;;3.40;;
10904;SDS011;5505;51.450;9.254;2023-01-24T03:04:18;5.47;;;4.97;;
10904;SDS011;5505;51.450;9.254;2023-01-24T03:07:05;5.10;;;4.60;;
10904;SDS011;5505;51.450;9.254;2023-01-24T03:09:51;3.93;;;3.53;;
10904;SDS011;5505;51.450;9.254;2023-01-24T03:12:38;4.07;;;3.33;;
10904;SDS011;5505;51.450;9.254;2023-01-24T03:15:42;4.60;;;4.03;;
10904;SDS011;5505;51.450;9.254;2023-01-24T03:18:48;4.47;;;4.07;;
10904;SDS011;5505;51.450;9.254;2023-01-24T03:21:52;3.70;;;2.77;;
10904;SDS011;5505;51.450;9.254;2023-01-24T03:24:56;4.83;;;4.00;;
10904;SDS011;5505;51.450;9.254;2023-01-24T03:28:02;4.53;;;4.10;;
10904;SDS011;5505;51.450;9.254;2023-01-24T03:31:06;5.63;;;4.13;;
10904;SDS011;5505;51.450;9.254;2023-01-24T03:34:12;4.13;;;3.73;;
10904;SDS011;5505;51.450;9.254;2023-01-24T03:37:18;4.77;;;4.27;;
10904;SDS011;5505;51.450;9.254;2023-01-24T03:40:28;5.03;;;4.40;;
10904;SDS011;5505;51.450;9.254;2023-01-24T03:43:14;5.13;;;4.63;;
10904;SDS011;5505;51.450;9.254;2023-01-24T03:46:01;5.87;;;4.97;;
10904;SDS011;5505;51.450;9.254;2023-01-24T03:48:48;5.20;;;4.70;;
10904;SDS011;5505;51.450;9.254;2023-01-24T03:51:36;4.70;;;4.23;;
10904;SDS011;5505;51.450;9.254;2023-01-24T03:54:40;5.43;;;4.80;;
10904;SDS011;5505;51.450;9.254;2023-01-24T03:57:27;5.93;;;5.43;;
10904;SDS011;5505;51.450;9.254;2023-01-24T04:00:15;6.60;;;4.80;;
10904;SDS011;5505;51.450;9.254;2023-01-24T04:03:02;5.13;;;4.63;;
10904;SDS011;5505;51.450;9.254;2023-01-24T04:05:50;5.93;;;4.73;;
10904;SDS011;5505;51.450;9.254;2023-01-24T04:08:38;4.87;;;4.33;;
10904;SDS011;5505;51.450;9.254;2023-01-24T04:11:25;5.00;;;4.43;;
10904;SDS011;5505;51.450;9.254;2023-01-24T04:14:12;5.70;;;4.90;;
10904;SDS011;5505;51.450;9.254;2023-01-24T04:16:58;4.97;;;4.47;;
10904;SDS011;5505;51.450;9.254;2023-01-24T04:19:45;5.20;;;4.70;;
10904;SDS011;5505;51.450;9.254;2023-01-24T04:22:32;5.40;;;4.90;;
10904;SDS011;5505;51.450;9.254;2023-01-24T04:25:20;4.70;;;4.30;;
10904;SDS011;5505;51.450;9.254;2023-01-24T04:28:07;5.30;;;4.80;;
10904;SDS011;5505;51.450;9.254;2023-01-24T04:30:57;3.87;;;3.40;;
10904;SDS011;5505;51.450;9.254;2023-01-24T04:33:45;3.37;;;2.97;;
10904;SDS011;5505;51.450;9.254;2023-01-24T04:36:32;5.20;;;3.57;;
10904;SDS011;5505;51.450;9.254;2023-01-24T04:39:18;3.57;;;3.13;;
10904;SDS011;5505;51.450;9.254;2023-01-24T04:42:07;5.10;;;4.60;;
10904;SDS011;5505;51.450;9.254;2023-01-24T04:44:53;4.43;;;4.00;;
10904;SDS011;5505;51.450;9.254;2023-01-24T04:47:40;3.93;;;3.53;;
10904;SDS011;5505;51.450;9.254;2023-01-24T04:50:27;4.83;;;4.17;;
10904;SDS011;5505;51.450;9.254;2023-01-24T04:53:14;3.77;;;2.93;;
10904;SDS011;5505;51.450;9.254;2023-01-24T04:56:00;4.17;;;3.77;;
10904;SDS011;5505;51.450;9.254;2023-01-24T04:58:49;3.97;;;3.43;;
10904;SDS011;5505;51.450;9.254;2023-01-24T05:01:36;3.80;;;3.50;;
10904;SDS011;5505;51.450;9.254;2023-01-24T05:04:22;4.27;;;3.87;;
10904;SDS011;5505;51.450;9.254;2023-01-24T05:07:09;4.50;;;3.70;;
10904;SDS011;5505;51.450;9.254;2023-01-24T05:09:56;3.50;;;3.00;;
10904;SDS011;5505;51.450;9.254;2023-01-24T05:12:44;4.57;;;3.47;;
10904;SDS011;5505;51.450;9.254;2023-01-24T05:15:32;3.87;;;3.57;;
10904;SDS011;5505;51.450;9.254;2023-01-24T05:18:19;4.23;;;3.50;;
10904;SDS011;5505;51.450;9.254;2023-01-24T05:21:06;3.73;;;3.43;;
10904;SDS011;5505;51.450;9.254;2023-01-24T05:23:54;3.60;;;3.30;;
10904;SDS011;5505;51.450;9.254;2023-01-24T05:26:41;3.47;;;3.17;;
10904;SDS011;5505;51.450;9.254;2023-01-24T05:29:27;4.10;;;3.70;;
10904;SDS011;5505;51.450;9.254;2023-01-24T05:32:15;4.70;;;4.20;;
10904;SDS011;5505;51.450;9.254;2023-01-24T05:35:02;4.40;;;4.00;;
10904;SDS011;5505;51.450;9.254;2023-01-24T05:37:50;2.63;;;2.20;;
10904;SDS011;5505;51.450;9.254;2023-01-24T05:40:37;3.97;;;3.60;;
10904;SDS011;5505;51.450;9.254;2023-01-24T05:43:24;3.77;;;3.47;;
10904;SDS011;5505;51.450;9.254;2023-01-24T05:46:11;3.23;;;2.93;;
10904;SDS011;5505;51.450;9.254;2023-01-24T05:49:00;4.70;;;4.20;;
10904;SDS011;5505;51.450;9.254;2023-01-24T05:51:47;4.77;;;4.37;;
10904;SDS011;5505;51.450;9.254;2023-01-24T05:54:34;4.73;;;4.23;;
10904;SDS011;5505;51.450;9.254;2023-01-24T05:57:21;4.83;;;4.27;;
10904;SDS011;5505;51.450;9.254;2023-01-24T06:00:08;4.13;;;3.70;;
10904;SDS011;5505;51.450;9.254;2023-01-24T06:03:00;5.23;;;4.50;;
10904;SDS011;5505;51.450;9.254;2023-01-24T06:05:49;3.87;;;3.43;;
10904;SDS011;5505;51.450;9.254;2023-01-24T06:08:37;4.37;;;3.83;;
10904;SDS011;5505;51.450;9.254;2023-01-24T06:11:25;4.87;;;4.37;;
10904;SDS011;5505;51.450;9.254;2023-01-24T06:14:13;4.77;;;3.83;;
10904;SDS011;5505;51.450;9.254;2023-01-24T06:17:00;5.13;;;4.63;;
10904;SDS011;5505;51.450;9.254;2023-01-24T06:19:46;4.70;;;4.17;;
10904;SDS011;5505;51.450;9.254;2023-01-24T06:22:36;4.90;;;4.50;;
10904;SDS011;5505;51.450;9.254;2023-01-24T06:25:30;4.67;;;4.17;;
10904;SDS011;5505;51.450;9.254;2023-01-24T06:28:18;6.50;;;5.37;;
10904;SDS011;5505;51.450;9.254;2023-01-24T06:31:08;4.40;;;4.00;;
10904;SDS011;5505;51.450;9.254;2023-01-24T06:34:08;5.67;;;5.17;;
10904;SDS011;5505;51.450;9.254;2023-01-24T06:37:08;5.03;;;4.53;;
10904;SDS011;5505;51.450;9.254;2023-01-24T06:40:06;5.60;;;5.00;;
10904;SDS011;5505;51.450;9.254;2023-01-24T06:42:54;5.47;;;4.90;;
10904;SDS011;5505;51.450;9.254;2023-01-24T06:45:41;5.60;;;5.00;;
10904;SDS011;5505;51.450;9.254;2023-01-24T06:48:28;4.80;;;4.40;;
10904;SDS011;5505;51.450;9.254;2023-01-24T06:51:15;4.87;;;4.37;;
10904;SDS011;5505;51.450;9.254;2023-01-24T06:54:02;6.33;;;3.97;;
10904;SDS011;5505;51.450;9.254;2023-01-24T06:56:50;4.17;;;3.50;;
10904;SDS011;5505;51.450;9.254;2023-01-24T06:59:37;4.10;;;3.70;;
10904;SDS011;5505;51.450;9.254;2023-01-24T07:02:23;5.73;;;4.27;;
10904;SDS011;5505;51.450;9.254;2023-01-24T07:05:10;4.93;;;4.53;;
10904;SDS011;5505;51.450;9.254;2023-01-24T07:07:57;4.70;;;4.30;;
10904;SDS011;5505;51.450;9.254;2023-01-24T07:10:44;4.10;;;3.80;;
10904;SDS011;5505;51.450;9.254;2023-01-24T07:13:33;3.63;;;3.03;;
10904;SDS011;5505;51.450;9.254;2023-01-24T07:16:19;4.53;;;3.73;;
10904;SDS011;5505;51.450;9.254;2023-01-24T07:19:07;5.13;;;4.10;;
10904;SDS011;5505;51.450;9.254;2023-01-24T07:21:59;4.77;;;4.27;;
10904;SDS011;5505;51.450;9.254;2023-01-24T07:24:46;4.27;;;3.87;;
10904;SDS011;5505;51.450;9.254;2023-01-24T07:27:34;4.70;;;4.20;;
10904;SDS011;5505;51.450;9.254;2023-01-24T07:30:22;3.27;;;2.97;;
10904;SDS011;5505;51.450;9.254;2023-01-24T07:33:09;4.33;;;3.93;;
10904;SDS011;5505;51.450;9.254;2023-01-24T07:35:56;4.67;;;4.00;;
10904;SDS011;5505;51.450;9.254;2023-01-24T07:38:42;4.63;;;4.23;;
10904;SDS011;5505;51.450;9.254;2023-01-24T07:41:29;4.20;;;3.80;;
10904;SDS011;5505;51.450;9.254;2023-01-24T07:44:16;3.10;;;2.77;;
10904;SDS011;5505;51.450;9.254;2023-01-24T07:47:04;4.67;;;4.17;;
10904;SDS011;5505;51.450;9.254;2023-01-24T07:49:51;4.20;;;3.80;;
10904;SDS011;5505;51.450;9.254;2023-01-24T07:55:26;3.90;;;3.47;;
10904;SDS011;5505;51.450;9.254;2023-01-24T07:58:13;4.40;;;4.00;;
10904;SDS011;5505;51.450;9.254;2023-01-24T08:00:59;4.30;;;3.90;;
10904;SDS011;5505;51.450;9.254;2023-01-24T08:03:46;4.20;;;3.80;;
10904;SDS011;5505;51.450;9.254;2023-01-24T08:06:34;8.40;;;3.63;;
10904;SDS011;5505;51.450;9.254;2023-01-24T08:09:21;4.17;;;3.77;;
10904;SDS011;5505;51.450;9.254;2023-01-24T08:12:09;4.83;;;4.37;;
10904;SDS011;5505;51.450;9.254;2023-01-24T08:14:56;4.80;;;4.07;;
10904;SDS011;5505;51.450;9.254;2023-01-24T08:17:43;5.37;;;4.87;;
10904;SDS011;5505;51.450;9.254;2023-01-24T08:20:29;4.00;;;3.57;;
10904;SDS011;5505;51.450;9.254;2023-01-24T08:23:16;4.40;;;3.70;;
10904;SDS011;5505;51.450;9.254;2023-01-24T08:26:03;5.43;;;3.70;;
10904;SDS011;5505;51.450;9.254;2023-01-24T08:28:53;3.90;;;3.50;;
10904;SDS011;5505;51.450;9.254;2023-01-24T08:31:39;3.70;;;3.37;;
10904;SDS011;5505;51.450;9.254;2023-01-24T08:34:26;3.13;;;2.83;;
10904;SDS011;5505;51.450;9.254;2023-01-24T08:37:13;3.27;;;2.97;;
10904;SDS011;5505;51.450;9.254;2023-01-24T08:40:00;3.70;;;3.40;;
10904;SDS011;5505;51.450;9.254;2023-01-24T08:42:46;3.40;;;3.10;;
10904;SDS011;5505;51.450;9.254;2023-01-24T08:45:35;4.27;;;3.53;;
10904;SDS011;5505;51.450;9.254;2023-01-24T08:48:22;4.23;;;3.83;;
10904;SDS011;5505;51.450;9.254;2023-01-24T08:51:08;4.60;;;3.80;;
10904;SDS011;5505;51.450;9.254;2023-01-24T08:53:55;3.63;;;3.33;;
10904;SDS011;5505;51.450;9.254;2023-01-24T08:56:42;4.10;;;3.37;;
10904;SDS011;5505;51.450;9.254;2023-01-24T08:59:29;4.20;;;3.80;;
10904;SDS011;5505;51.450;9.254;2023-01-24T09:02:17;3.30;;;3.00;;
10904;SDS011;5505;51.450;9.254;2023-01-24T09:05:04;3.50;;;3.17;;
10904;SDS011;5505;51.450;9.254;2023-01-24T09:07:53;3.97;;;2.17;;
10904;SDS011;5505;51.450;9.254;2023-01-24T09:10:40;4.30;;;4.00;;
10904;SDS011;5505;51.450;9.254;2023-01-24T09:13:27;3.67;;;3.37;;
10904;SDS011;5505;51.450;9.254;2023-01-24T09:16:14;3.33;;;3.03;;
10904;SDS011;5505;51.450;9.254;2023-01-24T09:19:02;4.93;;;3.93;;
10904;SDS011;5505;51.450;9.254;2023-01-24T09:21:49;4.07;;;3.73;;
10904;SDS011;5505;51.450;9.254;2023-01-24T09:24:39;4.83;;;4.43;;
10904;SDS011;5505;51.450;9.254;2023-01-24T09:27:26;3.53;;;3.23;;
10904;SDS011;5505;51.450;9.254;2023-01-24T09:30:13;2.90;;;2.20;;
10904;SDS011;5505;51.450;9.254;2023-01-24T09:33:02;4.60;;;3.43;;
10904;SDS011;5505;51.450;9.254;2023-01-24T09:35:51;5.63;;;5.03;;
10904;SDS011;5505;51.450;9.254;2023-01-24T09:38:39;4.70;;;4.20;;
10904;SDS011;5505;51.450;9.254;2023-01-24T09:41:28;5.07;;;4.67;;
10904;SDS011;5505;51.450;9.254;2023-01-24T09:44:25;5.13;;;4.63;;
10904;SDS011;5505;51.450;9.254;2023-01-24T09:47:21;4.80;;;4.20;;
10904;SDS011;5505;51.450;9.254;2023-01-24T09:50:13;4.53;;;4.13;;
10904;SDS011;5505;51.450;9.254;2023-01-24T09:53:08;4.37;;;3.97;;
10904;SDS011;5505;51.450;9.254;2023-01-24T09:56:03;4.70;;;4.03;;
10904;SDS011;5505;51.450;9.254;2023-01-24T09:59:03;3.60;;;3.20;;
10904;SDS011;5505;51.450;9.254;2023-01-24T10:01:58;3.57;;;3.27;;
10904;SDS011;5505;51.450;9.254;2023-01-24T10:04:45;5.20;;;4.70;;
10904;SDS011;5505;51.450;9.254;2023-01-24T10:07:42;4.00;;;3.70;;
10904;SDS011;5505;51.450;9.254;2023-01-24T10:10:42;5.07;;;4.57;;
10904;SDS011;5505;51.450;9.254;2023-01-24T10:13:39;5.40;;;4.90;;
10904;SDS011;5505;51.450;9.254;2023-01-24T10:20:21;5.10;;;4.60;;
10904;SDS011;5505;51.450;9.254;2023-01-24T10:23:20;5.40;;;4.90;;
10904;SDS011;5505;51.450;9.254;2023-01-24T10:26:14;5.97;;;5.33;;
10904;SDS011;5505;51.450;9.254;2023-01-24T10:29:09;5.70;;;4.57;;
10904;SDS011;5505;51.450;9.254;2023-01-24T10:32:01;4.63;;;4.23;;
10904;SDS011;5505;51.450;9.254;2023-01-24T10:34:53;5.47;;;4.97;;
10904;SDS011;5505;51.450;9.254;2023-01-24T10:37:43;5.47;;;4.97;;
10904;SDS011;5505;51.450;9.254;2023-01-24T10:40:39;5.20;;;4.43;;
10904;SDS011;5505;51.450;9.254;2023-01-24T10:43:37;5.03;;;4.53;;
10904;SDS011;5505;51.450;9.254;2023-01-24T10:46:28;6.33;;;5.37;;
10904;SDS011;5505;51.450;9.254;2023-01-24T10:49:28;6.07;;;5.47;;
10904;SDS011;5505;51.450;9.254;2023-01-24T10:52:18;5.90;;;5.30;;
10904;SDS011;5505;51.450;9.254;2023-01-24T10:55:21;7.03;;;6.33;;
10904;SDS011;5505;51.450;9.254;2023-01-24T10:58:20;6.97;;;6.03;;
10904;SDS011;5505;51.450;9.254;2023-01-24T11:01:16;5.43;;;4.93;;
10904;SDS011;5505;51.450;9.254;2023-01-24T11:04:12;6.43;;;5.83;;
10904;SDS011;5505;51.450;9.254;2023-01-24T11:07:04;7.77;;;7.07;;
10904;SDS011;5505;51.450;9.254;2023-01-24T11:09:52;6.97;;;6.07;;
10904;SDS011;5505;51.450;9.254;2023-01-24T11:12:47;5.60;;;5.10;;
10904;SDS011;5505;51.450;9.254;2023-01-24T11:15:38;6.17;;;5.47;;
10904;SDS011;5505;51.450;9.254;2023-01-24T11:18:33;7.40;;;6.70;;
10904;SDS011;5505;51.450;9.254;2023-01-24T11:21:22;7.33;;;6.60;;
10904;SDS011;5505;51.450;9.254;2023-01-24T11:24:12;6.77;;;6.07;;
10904;SDS011;5505;51.450;9.254;2023-01-24T11:27:02;7.33;;;6.60;;
10904;SDS011;5505;51.450;9.254;2023-01-24T11:30:04;5.67;;;5.00;;
10904;SDS011;5505;51.450;9.254;2023-01-24T11:32:56;7.00;;;6.37;;
10904;SDS011;5505;51.450;9.254;2023-01-24T11:35:55;7.80;;;6.77;;
10904;SDS011;5505;51.450;9.254;2023-01-24T11:38:46;6.13;;;5.60;;
10904;SDS011;5505;51.450;9.254;2023-01-24T11:41:34;7.33;;;6.63;;
10904;SDS011;5505;51.450;9.254;2023-01-24T11:44:35;8.00;;;7.20;;
10904;SDS011;5505;51.450;9.254;2023-01-24T11:47:33;8.47;;;6.70;;
10904;SDS011;5505;51.450;9.254;2023-01-24T11:50:28;6.53;;;5.87;;
10904;SDS011;5505;51.450;9.254;2023-01-24T11:53:28;7.27;;;6.57;;
10904;SDS011;5505;51.450;9.254;2023-01-24T11:56:32;4.83;;;4.33;;
10904;SDS011;5505;51.450;9.254;2023-01-24T11:59:44;8.23;;;7.43;;
10904;SDS011;5505;51.450;9.254;2023-01-24T12:02:43;6.97;;;6.27;;
10904;SDS011;5505;51.450;9.254;2023-01-24T12:05:51;7.03;;;6.33;;
10904;SDS011;5505;51.450;9.254;2023-01-24T12:08:52;7.90;;;7.07;;
10904;SDS011;5505;51.450;9.254;2023-01-24T12:11:49;4.97;;;4.47;;
10904;SDS011;5505;51.450;9.254;2023-01-24T12:14:47;6.20;;;5.47;;
10904;SDS011;5505;51.450;9.254;2023-01-24T12:17:56;7.43;;;6.00;;
10904;SDS011;5505;51.450;9.254;2023-01-24T12:21:00;8.93;;;8.13;;
10904;SDS011;5505;51.450;9.254;2023-01-24T12:23:55;7.43;;;6.63;;
10904;SDS011;5505;51.450;9.254;2023-01-24T12:26:48;8.47;;;7.40;;
10904;SDS011;5505;51.450;9.254;2023-01-24T12:29:38;7.37;;;5.90;;
10904;SDS011;5505;51.450;9.254;2023-01-24T12:32:30;9.07;;;8.17;;
10904;SDS011;5505;51.450;9.254;2023-01-24T12:35:23;8.43;;;7.50;;
10904;SDS011;5505;51.450;9.254;2023-01-24T12:38:16;8.27;;;7.23;;
10904;SDS011;5505;51.450;9.254;2023-01-24T12:41:09;7.80;;;7.00;;
10904;SDS011;5505;51.450;9.254;2023-01-24T12:44:03;8.40;;;7.20;;
10904;SDS011;5505;51.450;9.254;2023-01-24T12:47:08;8.93;;;7.87;;
10904;SDS011;5505;51.450;9.254;2023-01-24T12:50:07;8.40;;;7.47;;
10904;SDS011;5505;51.450;9.254;2023-01-24T12:53:03;6.37;;;5.77;;
10904;SDS011;5505;51.450;9.254;2023-01-24T12:55:59;8.70;;;7.67;;
10904;SDS011;5505;51.450;9.254;2023-01-24T12:58:52;8.43;;;7.53;;
10904;SDS011;5505;51.450;9.254;2023-01-24T13:01:56;8.17;;;7.37;;
10904;SDS011;5505;51.450;9.254;2023-01-24T13:04:56;9.23;;;8.33;;
10904;SDS011;5505;51.450;9.254;2023-01-24T13:07:54;8.27;;;7.13;;
10904;SDS011;5505;51.450;9.254;2023-01-24T13:10:57;8.87;;;7.80;;
10904;SDS011;5505;51.450;9.254;2023-01-24T13:13:57;9.53;;;7.63;;
10904;SDS011;5505;51.450;9.254;2023-01-24T13:17:01;9.40;;;8.50;;
10904;SDS011;5505;51.450;9.254;2023-01-24T13:20:00;8.57;;;7.67;;
10904;SDS011;5505;51.450;9.254;2023-01-24T13:22:57;8.57;;;7.77;;
10904;SDS011;5505;51.450;9.254;2023-01-24T13:26:09;10.07;;;8.77;;
10904;SDS011;5505;51.450;9.254;2023-01-24T13:29:25;9.30;;;7.87;;
10904;SDS011;5505;51.450;9.254;2023-01-24T13:32:27;10.40;;;7.80;;
10904;SDS011;5505;51.450;9.254;2023-01-24T13:35:17;9.17;;;8.17;;
10904;SDS011;5505;51.450;9.254;2023-01-24T13:38:14;9.23;;;7.53;;
10904;SDS011;5505;51.450;9.254;2023-01-24T13:41:04;8.87;;;7.97;;
10904;SDS011;5505;51.450;9.254;2023-01-24T13:43:59;9.23;;;8.23;;
10904;SDS011;5505;51.450;9.254;2023-01-24T13:46:57;10.20;;;8.83;;
10904;SDS011;5505;51.450;9.254;2023-01-24T13:50:13;9.83;;;8.93;;
10904;SDS011;5505;51.450;9.254;2023-01-24T13:53:04;8.87;;;7.47;;
10904;SDS011;5505;51.450;9.254;2023-01-24T13:56:01;9.30;;;8.37;;
10904;SDS011;5505;51.450;9.254;2023-01-24T13:58:49;10.87;;;8.90;;
10904;SDS011;5505;51.450;9.254;2023-01-24T14:01:43;9.53;;;8.10;;
10904;SDS011;5505;51.450;9.254;2023-01-24T14:04:38;10.10;;;9.10;;
10904;SDS011;5505;51.450;9.254;2023-01-24T14:07:27;9.87;;;8.67;;
10904;SDS011;5505;51.450;9.254;2023-01-24T14:10:16;9.13;;;8.23;;
10904;SDS011;5505;51.450;9.254;2023-01-24T14:13:03;9.10;;;7.73;;
10904;SDS011;5505;51.450;9.254;2023-01-24T14:15:50;8.63;;;7.17;;
10904;SDS011;5505;51.450;9.254;2023-01-24T14:21:35;9.47;;;7.97;;
10904;SDS011;5505;51.450;9.254;2023-01-24T14:24:33;9.97;;;8.70;;
10904;SDS011;5505;51.450;9.254;2023-01-24T14:27:23;10.43;;;8.80;;
10904;SDS011;5505;51.450;9.254;2023-01-24T14:30:27;10.97;;;8.60;;
10904;SDS011;5505;51.450;9.254;2023-01-24T14:33:36;12.40;;;9.50;;
10904;SDS011;5505;51.450;9.254;2023-01-24T14:36:29;11.73;;;8.20;;
10904;SDS011;5505;51.450;9.254;2023-01-24T14:39:20;9.80;;;8.80;;
10904;SDS011;5505;51.450;9.254;2023-01-24T14:42:11;12.30;;;9.50;;
10904;SDS011;5505;51.450;9.254;2023-01-24T14:44:59;10.07;;;9.07;;
10904;SDS011;5505;51.450;9.254;2023-01-24T14:47:46;10.90;;;9.13;;
10904;SDS011;5505;51.450;9.254;2023-01-24T14:50:36;11.90;;;9.50;;
10904;SDS011;5505;51.450;9.254;2023-01-24T14:53:24;9.10;;;8.13;;
10904;SDS011;5505;51.450;9.254;2023-01-24T14:56:13;9.20;;;7.90;;
10904;SDS011;5505;51.450;9.254;2023-01-24T14:59:09;10.50;;;9.40;;
10904;SDS011;5505;51.450;9.254;2023-01-24T15:01:57;11.33;;;9.20;;
10904;SDS011;5505;51.450;9.254;2023-01-24T15:04:44;10.10;;;8.40;;
10904;SDS011;5505;51.450;9.254;2023-01-24T15:07:32;9.57;;;8.43;;
10904;SDS011;5505;51.450;9.254;2023-01-24T15:10:21;10.50;;;9.20;;
10904;SDS011;5505;51.450;9.254;2023-01-24T15:13:17;10.00;;;8.47;;
10904;SDS011;5505;51.450;9.254;2023-01-24T15:16:06;10.93;;;9.30;;
10904;SDS011;5505;51.450;9.254;2023-01-24T15:18:53;11.00;;;8.97;;
10904;SDS011;5505;51.450;9.254;2023-01-24T15:21:47;10.20;;;8.53;;
10904;SDS011;5505;51.450;9.254;2023-01-24T15:24:35;11.07;;;8.20;;
10904;SDS011;5505;51.450;9.254;2023-01-24T15:27:28;9.53;;;8.20;;
10904;SDS011;5505;51.450;9.254;2023-01-24T15:30:22;9.40;;;8.50;;
10904;SDS011;5505;51.450;9.254;2023-01-24T15:33:10;9.20;;;8.10;;
10904;SDS011;5505;51.450;9.254;2023-01-24T15:35:58;9.80;;;6.93;;
10904;SDS011;5505;51.450;9.254;2023-01-24T15:38:45;9.07;;;7.17;;
10904;SDS011;5505;51.450;9.254;2023-01-24T15:41:38;10.50;;;8.13;;
10904;SDS011;5505;51.450;9.254;2023-01-24T15:44:42;8.57;;;7.23;;
10904;SDS011;5505;51.450;9.254;2023-01-24T15:47:32;6.93;;;5.27;;
10904;SDS011;5505;51.450;9.254;2023-01-24T15:50:30;7.23;;;5.87;;
10904;SDS011;5505;51.450;9.254;2023-01-24T15:53:35;8.77;;;6.67;;
10904;SDS011;5505;51.450;9.254;2023-01-24T15:56:22;7.60;;;6.90;;
10904;SDS011;5505;51.450;9.254;2023-01-24T15:59:13;8.47;;;7.63;;
10904;SDS011;5505;51.450;9.254;2023-01-24T16:02:02;8.43;;;7.30;;
10904;SDS011;5505;51.450;9.254;2023-01-24T16:04:50;9.43;;;8.47;;
10904;SDS011;5505;51.450;9.254;2023-01-24T16:07:36;9.50;;;8.13;;
10904;SDS011;5505;51.450;9.254;2023-01-24T16:10:23;8.67;;;7.40;;
10904;SDS011;5505;51.450;9.254;2023-01-24T16:13:23;8.47;;;7.30;;
10904;SDS011;5505;51.450;9.254;2023-01-24T16:16:14;10.33;;;6.73;;
10904;SDS011;5505;51.450;9.254;2023-01-24T16:19:01;9.50;;;7.23;;
10904;SDS011;5505;51.450;9.254;2023-01-24T16:21:50;7.93;;;6.50;;
10904;SDS011;5505;51.450;9.254;2023-01-24T16:24:37;8.33;;;6.83;;
10904;SDS011;5505;51.450;9.254;2023-01-24T16:27:24;8.23;;;6.50;;
10904;SDS011;5505;51.450;9.254;2023-01-24T16:30:15;13.60;;;9.90;;
10904;SDS011;5505;51.450;9.254;2023-01-24T16:33:03;8.90;;;6.93;;
10904;SDS011;5505;51.450;9.254;2023-01-24T16:35:50;7.77;;;6.40;;
10904;SDS011;5505;51.450;9.254;2023-01-24T16:38:38;9.00;;;7.00;;
10904;SDS011;5505;51.450;9.254;2023-01-24T16:41:25;7.97;;;7.13;;
10904;SDS011;5505;51.450;9.254;2023-01-24T16:44:12;8.33;;;7.00;;
10904;SDS011;5505;51.450;9.254;2023-01-24T16:46:59;9.00;;;7.90;;
10904;SDS011;5505;51.450;9.254;2023-01-24T16:49:46;8.53;;;7.73;;
10904;SDS011;5505;51.450;9.254;2023-01-24T16:52:36;7.53;;;6.67;;
10904;SDS011;5505;51.450;9.254;2023-01-24T16:55:25;7.80;;;6.77;;
10904;SDS011;5505;51.450;9.254;2023-01-24T16:58:12;9.23;;;6.47;;
10904;SDS011;5505;51.450;9.254;2023-01-24T17:00:58;8.67;;;6.60;;
10904;SDS011;5505;51.450;9.254;2023-01-24T17:03:46;7.50;;;5.30;;
10904;SDS011;5505;51.450;9.254;2023-01-24T17:06:36;6.93;;;5.83;;
10904;SDS011;5505;51.450;9.254;2023-01-24T17:09:22;6.87;;;5.50;;
10904;SDS011;5505;51.450;9.254;2023-01-24T17:12:10;9.07;;;6.60;;
10904;SDS011;5505;51.450;9.254;2023-01-24T17:14:57;8.07;;;5.90;;
10904;SDS011;5505;51.450;9.254;2023-01-24T17:17:44;8.07;;;6.60;;
10904;SDS011;5505;51.450;9.254;2023-01-24T17:20:31;8.47;;;7.30;;
10904;SDS011;5505;51.450;9.254;2023-01-24T17:23:18;10.30;;;6.87;;
10904;SDS011;5505;51.450;9.254;2023-01-24T17:26:05;8.27;;;6.73;;
10904;SDS011;5505;51.450;9.254;2023-01-24T17:28:55;8.67;;;6.90;;
10904;SDS011;5505;51.450;9.254;2023-01-24T17:31:41;8.87;;;7.17;;
10904;SDS011;5505;51.450;9.254;2023-01-24T17:34:29;8.63;;;6.93;;